Terminal Aerodrome Forecast
Issued by NWS Spokane, WA

Home | Current Version | Previous Version | Text Only | Print | Product List | Glossary On
Versions: 1 2 3 4 5 6 7 8 9 10 11 12 13 14 15 16 17 18 19 20 21 22 23 24 25 26 27 28 29 30 31 32 33 34 35 36 37 38 39 40 41 42 43 44 45 46 47 48 49 50
000
FTUS46 KOTX 040349 AAA
TAFGEG
TAF AMD
KGEG 040349Z 0404/0424 20014KT P6SM FEW070 BKN110 OVC180
     FM040800 21017G26KT P6SM -RA BKN015 OVC040
     FM041500 22013G20KT P6SM OVC030
     FM042000 26020G26KT P6SM BKN100=

USA.gov is the U.S. government's official web portal to all federal, state and local government web resources and services.